Time;durP1;ratioP1;P1;durP2;ratioP2;P2;SDS_P1;SDS_P2;PMS_P1;PMS_P2;Temp;Humidity;BMP_temperature;BMP_pressure;BME280_temperature;BME280_humidity;BME280_pressure;Samples;Min_cycle;Max_cycle;Signal;HPM_P1;HPM_P2
2023/01/28 00:02:08;;;;;;;55.80;28.00;;;;;;;-1.47;83.64;101278.77;107547;1253;99237;-59
2023/01/28 00:04:36;;;;;;;55.20;26.50;;;;;;;-1.48;83.73;101283.39;107558;1254;99169;-64
2023/01/28 00:07:05;;;;;;;62.80;27.30;;;;;;;-1.48;83.77;101281.47;107558;1255;112716;-60
2023/01/28 00:09:33;;;;;;;55.10;27.10;;;;;;;-1.49;83.66;101281.66;107532;1254;109918;-60
2023/01/28 00:12:01;;;;;;;60.80;28.10;;;;;;;-1.52;83.79;101283.31;107447;1254;108145;-60
2023/01/28 00:14:30;;;;;;;63.20;28.30;;;;;;;-1.52;83.66;101286.33;107512;1254;99226;-60
2023/01/28 00:16:58;;;;;;;59.60;26.60;;;;;;;-1.53;83.70;101286.36;107501;1254;99073;-58
2023/01/28 00:19:27;;;;;;;57.20;28.00;;;;;;;-1.51;83.90;101284.01;107531;1254;113530;-59
2023/01/28 00:21:55;;;;;;;56.40;28.20;;;;;;;-1.52;83.72;101284.89;107458;1254;109364;-60
2023/01/28 00:24:24;;;;;;;55.20;26.80;;;;;;;-1.52;83.76;101284.91;107368;1254;109252;-60
2023/01/28 00:26:53;;;;;;;65.90;27.30;;;;;;;-1.53;83.70;101283.20;107435;1257;99215;-59
2023/01/28 00:29:21;;;;;;;59.30;27.70;;;;;;;-1.56;83.70;101284.84;107513;1254;99057;-60
2023/01/28 00:31:50;;;;;;;55.40;28.40;;;;;;;-1.57;83.77;101283.65;107482;1254;112517;-59
2023/01/28 00:34:19;;;;;;;66.40;30.50;;;;;;;-1.54;83.94;101284.27;107543;1253;108846;-59
2023/01/28 00:36:56;;;;;;;58.10;28.00;;;;;;;-1.48;84.21;101285.67;107450;1256;107974;-60
2023/01/28 00:39:26;;;;;;;60.80;28.90;;;;;;;-1.41;84.20;101280.89;107526;1254;99204;-59
2023/01/28 00:41:54;;;;;;;60.70;30.00;;;;;;;-1.38;83.94;101279.92;107482;1253;99282;-60
2023/01/28 00:44:25;;;;;;;63.80;29.70;;;;;;;-1.37;83.73;101279.36;107445;1254;112991;-63
2023/01/28 00:46:53;;;;;;;62.30;29.90;;;;;;;-1.35;83.80;101272.44;107451;1254;110113;-60
2023/01/28 00:49:22;;;;;;;65.20;29.40;;;;;;;-1.35;83.39;101278.40;107633;1257;108295;-60
2023/01/28 00:51:51;;;;;;;67.30;31.10;;;;;;;-1.34;83.64;101280.66;107510;1253;99243;-59
2023/01/28 00:54:19;;;;;;;75.40;33.00;;;;;;;-1.34;83.51;101280.33;107497;1254;99124;-59
2023/01/28 00:56:47;;;;;;;66.40;30.50;;;;;;;-1.33;83.87;101274.32;107593;1254;113626;-61
2023/01/28 00:59:16;;;;;;;63.10;30.70;;;;;;;-1.30;83.77;101279.48;107452;1254;109650;-60
2023/01/28 01:01:44;;;;;;;55.70;26.80;;;;;;;-1.29;83.46;101281.06;107477;1254;107798;-59
2023/01/28 01:04:25;;;;;;;61.60;29.00;;;;;;;-1.31;83.28;101285.17;107483;1257;99968;-59
2023/01/28 01:06:54;;;;;;;61.50;28.10;;;;;;;-1.28;83.45;101278.21;107603;1252;99195;-60
2023/01/28 01:09:23;;;;;;;57.90;27.70;;;;;;;-1.25;83.52;101272.67;107612;1255;112609;-62
2023/01/28 01:11:51;;;;;;;63.90;28.40;;;;;;;-1.23;83.33;101274.02;107509;1254;109012;-58
2023/01/28 01:14:19;;;;;;;64.40;28.50;;;;;;;-1.21;83.40;101268.30;107293;1254;109162;-62
2023/01/28 01:16:47;;;;;;;62.80;29.00;;;;;;;-1.19;83.18;101264.74;107503;1254;99246;-60
2023/01/28 01:19:19;;;;;;;62.60;30.20;;;;;;;-1.21;83.11;101267.80;107617;1254;99070;-60
2023/01/28 01:21:49;;;;;;;62.50;28.00;;;;;;;-1.22;82.99;101270.63;107632;1252;113925;-59
2023/01/28 01:24:18;;;;;;;58.60;28.60;;;;;;;-1.22;83.05;101273.64;107643;1254;109183;-60
2023/01/28 01:26:46;;;;;;;62.60;28.70;;;;;;;-1.23;82.80;101272.23;107448;1254;105708;-59
2023/01/28 01:29:15;;;;;;;63.50;28.50;;;;;;;-1.23;82.92;101278.95;107615;1254;99169;-58
2023/01/28 01:31:44;;;;;;;65.40;30.60;;;;;;;-1.22;82.92;101279.45;107481;1254;99735;-59
2023/01/28 01:34:12;;;;;;;70.70;29.10;;;;;;;-1.23;82.83;101279.65;107547;1253;112994;-61
2023/01/28 01:36:42;;;;;;;71.60;31.20;;;;;;;-1.27;82.76;101284.14;107481;1254;109624;-60
2023/01/28 01:39:11;;;;;;;70.40;30.70;;;;;;;-1.31;82.58;101287.44;107512;1254;107831;-60
2023/01/28 01:41:40;;;;;;;69.60;30.70;;;;;;;-1.36;82.56;101288.82;107568;1253;99186;-60
2023/01/28 01:44:47;;;;;;;70.80;30.70;;;;;;;-1.45;82.41;101293.52;107571;1254;99743;-60
2023/01/28 01:47:17;;;;;;;67.40;30.10;;;;;;;-1.57;82.51;101294.38;107570;1254;113181;-60
2023/01/28 01:49:46;;;;;;;78.30;32.60;;;;;;;-1.63;82.36;101294.36;107490;1254;110017;-61
2023/01/28 01:52:21;;;;;;;67.70;30.60;;;;;;;-1.63;82.92;101300.38;107503;1254;108332;-60
2023/01/28 01:54:51;;;;;;;;;;;;;;;-1.64;82.87;101301.08;107659;1256;99192;-59
2023/01/28 01:57:26;;;;;;;70.10;30.70;;;;;;;-1.64;82.90;101303.56;107437;1253;99812;-61
2023/01/28 01:59:57;;;;;;;74.10;33.90;;;;;;;-1.62;82.96;101302.64;107452;1254;112620;-60
2023/01/28 02:02:25;;;;;;;67.70;30.90;;;;;;;-1.61;83.01;101302.23;107583;1253;107862;-59
2023/01/28 02:04:54;;;;;;;81.10;31.80;;;;;;;-1.62;83.15;101296.80;107548;1254;109081;-60
2023/01/28 02:07:22;;;;;;;77.20;32.80;;;;;;;-1.65;82.98;101291.96;107543;1254;99199;-59
2023/01/28 02:09:50;;;;;;;81.70;34.00;;;;;;;-1.63;82.93;101292.63;107610;1254;99141;-60
2023/01/28 02:12:23;;;;;;;92.30;37.00;;;;;;;-1.61;83.00;101291.84;107446;1253;113146;-58
2023/01/28 02:15:00;;;;;;;78.70;33.10;;;;;;;-1.57;83.08;101292.80;107478;1254;110166;-60
2023/01/28 02:17:29;;;;;;;90.30;35.20;;;;;;;-1.53;83.05;101295.84;107540;1254;108176;-60
2023/01/28 02:20:01;;;;;;;85.20;34.10;;;;;;;-1.48;83.23;101296.94;107617;1253;99163;-63
2023/01/28 02:23:12;;;;;;;83.20;34.80;;;;;;;-1.45;83.52;101295.95;107604;1254;99692;-59
2023/01/28 02:26:08;;;;;;;95.60;33.40;;;;;;;-1.42;83.34;101295.51;107420;1252;113171;-60
2023/01/28 02:28:53;;;;;;;99.00;34.70;;;;;;;-1.38;83.49;101297.68;107608;1254;110268;-58
2023/01/28 02:31:31;;;;;;;88.70;34.00;;;;;;;-1.32;83.78;101297.69;107394;1257;108732;-60
2023/01/28 02:34:28;;;;;;;97.20;34.70;;;;;;;-1.28;83.65;101298.08;107552;1254;99197;-60
2023/01/28 02:37:22;;;;;;;93.50;37.50;;;;;;;-1.26;83.63;101299.42;107579;1252;99284;-60
2023/01/28 02:39:57;;;;;;;102.00;36.90;;;;;;;-1.22;83.65;101301.80;107447;1254;112701;-59
2023/01/28 02:42:31;;;;;;;104.30;38.00;;;;;;;-1.19;83.54;101305.04;107564;1254;110118;-61
2023/01/28 02:44:59;;;;;;;95.10;35.40;;;;;;;-1.17;83.58;101307.59;107553;1254;108766;-60
2023/01/28 02:50:19;;;;;;;94.40;34.10;;;;;;;-1.14;82.97;101309.27;107458;1254;99384;-59
2023/01/28 02:56:00;;;;;;;98.60;33.70;;;;;;;-1.19;82.77;101315.06;107483;1252;109593;-61
2023/01/28 02:58:32;;;;;;;91.50;34.50;;;;;;;-1.20;82.70;101312.80;107549;1254;108518;-60
2023/01/28 03:01:16;;;;;;;94.20;35.50;;;;;;;-1.23;82.34;101309.38;107553;1254;99189;-60
2023/01/28 03:03:44;;;;;;;;;;;;;;;-1.23;82.37;101310.80;107409;1254;99221;-60
2023/01/28 03:06:19;;;;;;;79.00;30.40;;;;;;;-1.33;81.32;101314.07;107591;1253;113764;-60
2023/01/28 03:36:50;;;;;;;61.30;29.10;;;;;;;-1.83;81.07;101306.20;107569;1257;113180;-61
2023/01/28 03:39:57;;;;;;;57.10;27.10;;;;;;;-1.82;81.00;101310.58;107367;1254;110059;-61
2023/01/28 03:42:25;;;;;;;59.10;27.10;;;;;;;-1.82;80.94;101312.67;107577;1254;107666;-60
2023/01/28 03:45:15;;;;;;;64.10;28.70;;;;;;;-1.81;81.06;101311.42;107568;1252;99048;-59
2023/01/28 03:47:46;;;;;;;60.30;27.70;;;;;;;-1.82;80.89;101316.89;107399;1254;99310;-59
2023/01/28 03:50:16;;;;;;;62.00;28.70;;;;;;;-1.82;81.13;101319.55;107635;1253;113262;-59
2023/01/28 03:53:11;;;;;;;66.80;29.80;;;;;;;-1.83;80.91;101313.95;107629;1254;108889;-60
2023/01/28 03:55:49;;;;;;;54.70;24.80;;;;;;;-1.81;81.08;101317.41;107640;1254;107777;-60
2023/01/28 03:58:19;;;;;;;70.40;29.30;;;;;;;-1.84;80.92;101317.31;107615;1254;99288;-62
2023/01/28 04:00:48;;;;;;;66.00;26.80;;;;;;;-1.88;80.94;101321.64;107677;1253;99730;-59
2023/01/28 04:03:19;;;;;;;66.70;30.40;;;;;;;-1.89;81.08;101321.50;107501;1252;112417;-59
2023/01/28 04:06:00;;;;;;;61.60;27.90;;;;;;;-1.91;80.99;101323.47;107600;1254;109922;-58
2023/01/28 04:08:51;;;;;;;65.70;28.00;;;;;;;-1.92;80.99;101325.41;107438;1253;107559;-60
2023/01/28 04:11:31;;;;;;;62.00;28.40;;;;;;;-1.92;81.15;101330.17;107520;1252;99236;-59
2023/01/28 04:14:02;;;;;;;60.60;25.70;;;;;;;-1.91;81.27;101330.85;107608;1254;99738;-59
2023/01/28 04:17:09;;;;;;;64.90;28.90;;;;;;;-1.87;81.01;101328.48;106911;1260;113216;-60
2023/01/28 04:19:39;;;;;;;66.70;28.60;;;;;;;-1.86;80.94;101329.52;106899;1260;108985;-59
2023/01/28 04:22:10;;;;;;;59.70;27.60;;;;;;;-1.85;80.98;101330.01;107192;1253;108379;-60
2023/01/28 04:24:40;;;;;;;62.90;27.40;;;;;;;-1.82;80.78;101337.11;107403;1252;99205;-61
2023/01/28 04:27:09;;;;;;;59.90;26.00;;;;;;;-1.83;80.49;101335.55;107529;1253;99198;-60
2023/01/28 04:29:38;;;;;;;62.00;27.40;;;;;;;-1.83;80.67;101338.55;107414;1253;113120;-59
2023/01/28 04:32:24;;;;;;;62.30;26.40;;;;;;;-1.82;80.38;101335.54;107520;1254;109697;-60
2023/01/28 04:35:06;;;;;;;54.20;26.30;;;;;;;-1.83;80.30;101334.34;107584;1254;108317;-60
2023/01/28 04:37:50;;;;;;;62.80;28.20;;;;;;;-1.82;80.47;101331.16;107565;1252;99246;-61
2023/01/28 04:40:48;;;;;;;61.70;27.20;;;;;;;-1.82;80.52;101333.09;107279;1254;99729;-60
2023/01/28 04:43:26;;;;;;;56.50;25.00;;;;;;;-1.81;80.55;101339.55;107498;1253;113434;-59
2023/01/28 04:46:11;;;;;;;65.30;26.90;;;;;;;-1.75;80.70;101344.84;107465;1253;110923;-60
2023/01/28 04:48:53;;;;;;;63.80;27.70;;;;;;;-1.69;80.89;101343.80;107398;1253;109017;-59
2023/01/28 04:51:42;;;;;;;57.20;25.70;;;;;;;-1.62;80.94;101344.14;107141;1256;99298;-64
2023/01/28 04:54:49;;;;;;;67.10;28.30;;;;;;;-1.61;80.61;101343.39;107040;1260;99077;-60
2023/01/28 04:57:17;;;;;;;68.60;28.90;;;;;;;-1.61;80.65;101342.00;107095;1261;113299;-60
2023/01/28 04:59:46;;;;;;;72.20;28.90;;;;;;;-1.59;80.68;101338.75;107181;1253;110025;-61
2023/01/28 05:02:15;;;;;;;73.20;29.40;;;;;;;-1.54;80.49;101346.02;107433;1254;107932;-60
2023/01/28 05:04:46;;;;;;;67.50;29.20;;;;;;;-1.53;80.35;101342.48;107429;1254;99237;-62
2023/01/28 05:07:29;;;;;;;76.00;29.70;;;;;;;-1.55;80.26;101342.16;107492;1254;99177;-61
2023/01/28 05:09:57;;;;;;;74.20;31.30;;;;;;;-1.56;80.23;101342.36;107365;1253;113243;-61
2023/01/28 05:12:26;;;;;;;74.00;31.00;;;;;;;-1.58;80.00;101350.86;107470;1253;109612;-60
2023/01/28 05:14:56;;;;;;;77.30;30.90;;;;;;;-1.63;79.87;101362.08;107424;1253;107687;-61
2023/01/28 05:17:26;;;;;;;79.80;31.60;;;;;;;-1.64;80.14;101364.41;107469;1253;99227;-59
2023/01/28 05:19:55;;;;;;;77.80;30.90;;;;;;;-1.64;80.14;101365.30;107463;1253;99839;-61
2023/01/28 05:22:24;;;;;;;75.00;31.50;;;;;;;-1.63;80.03;101367.75;107485;1254;112467;-59
2023/01/28 05:25:16;;;;;;;88.10;34.30;;;;;;;-1.64;80.25;101370.56;107505;1253;109687;-59
2023/01/28 05:27:49;;;;;;;78.50;32.00;;;;;;;-1.63;80.22;101369.48;107350;1253;108671;-59
2023/01/28 05:30:20;;;;;;;79.30;31.50;;;;;;;-1.63;80.32;101370.00;107448;1252;99254;-61
2023/01/28 05:32:48;;;;;;;77.00;30.10;;;;;;;-1.63;80.28;101373.71;107459;1253;99710;-62
2023/01/28 05:35:22;;;;;;;82.10;29.70;;;;;;;-1.67;80.11;101376.64;107321;1259;112993;-59
2023/01/28 05:37:50;;;;;;;76.50;31.40;;;;;;;-1.67;80.17;101376.12;107486;1253;109688;-60
2023/01/28 05:40:20;;;;;;;78.90;32.50;;;;;;;-1.65;80.19;101384.30;107519;1256;108605;-60
2023/01/28 05:42:48;;;;;;;78.60;30.20;;;;;;;-1.63;80.36;101385.48;107596;1254;99188;-60
2023/01/28 05:45:25;;;;;;;78.60;32.70;;;;;;;-1.59;80.58;101388.03;107521;1256;99198;-61
2023/01/28 05:48:04;;;;;;;71.50;31.30;;;;;;;-1.60;80.40;101388.73;107498;1253;113245;-61
2023/01/28 05:50:46;;;;;;;83.80;30.90;;;;;;;-1.60;80.54;101387.33;107467;1252;109701;-60
2023/01/28 05:53:20;;;;;;;76.70;31.20;;;;;;;-1.53;81.08;101389.08;107546;1254;108725;-59
2023/01/28 05:55:54;;;;;;;81.40;33.70;;;;;;;-1.46;81.14;101397.68;107578;1253;99231;-60
2023/01/28 05:58:26;;;;;;;;;;;;;;;-1.40;81.16;101402.43;107456;1253;99183;-60
2023/01/28 06:00:55;;;;;;;67.50;28.30;;;;;;;-1.35;81.18;101402.98;107499;1253;113641;-59
2023/01/28 06:03:27;;;;;;;76.00;31.40;;;;;;;-1.31;81.07;101399.91;107452;1253;109715;-59
2023/01/28 06:05:56;;;;;;;69.10;31.60;;;;;;;-1.28;81.03;101399.96;107477;1252;108793;-60
2023/01/28 06:08:24;;;;;;;73.60;29.00;;;;;;;-1.26;80.75;101403.63;107435;1256;99163;-60
2023/01/28 06:10:53;;;;;;;66.80;28.20;;;;;;;-1.26;80.63;101402.02;107441;1253;99749;-61
2023/01/28 06:13:23;;;;;;;63.80;27.20;;;;;;;-1.30;80.35;101403.19;107396;1252;113254;-60
2023/01/28 06:16:15;;;;;;;71.90;30.40;;;;;;;-1.28;80.44;101405.08;107384;1254;110969;-59
2023/01/28 06:19:02;;;;;;;63.60;28.60;;;;;;;-1.29;80.33;101402.64;107435;1254;108512;-60
2023/01/28 06:21:31;;;;;;;66.90;28.40;;;;;;;-1.29;80.35;101405.80;107369;1254;99176;-61
2023/01/28 06:23:59;;;;;;;58.50;26.90;;;;;;;-1.29;80.27;101411.79;107532;1253;99169;-59
2023/01/28 06:26:28;;;;;;;66.80;27.40;;;;;;;-1.27;80.41;101411.23;107418;1253;112607;-59
2023/01/28 06:28:56;;;;;;;69.50;29.70;;;;;;;-1.24;80.60;101406.73;107423;1253;109805;-59
2023/01/28 06:31:24;;;;;;;60.70;25.70;;;;;;;-1.21;80.43;101408.08;107430;1254;108435;-59
2023/01/28 06:33:52;;;;;;;65.40;28.20;;;;;;;-1.26;80.01;101407.86;107623;1256;99802;-59
2023/01/28 06:36:21;;;;;;;65.30;29.70;;;;;;;-1.31;79.99;101409.40;107618;1253;99073;-60
2023/01/28 06:38:49;;;;;;;68.60;29.50;;;;;;;-1.34;79.99;101410.37;107607;1253;114566;-60
2023/01/28 06:41:18;;;;;;;61.60;26.30;;;;;;;-1.34;80.02;101414.06;107478;1253;111027;-62
2023/01/28 06:43:46;;;;;;;79.90;31.90;;;;;;;-1.35;80.02;101413.73;107395;1253;108722;-60
2023/01/28 06:46:15;;;;;;;65.40;27.80;;;;;;;-1.36;79.95;101417.13;107376;1253;99215;-60
2023/01/28 06:48:44;;;;;;;66.70;27.90;;;;;;;-1.34;80.07;101420.73;107517;1254;99169;-59
2023/01/28 06:51:12;;;;;;;57.00;26.60;;;;;;;-1.32;79.96;101416.83;107404;1253;113431;-60
2023/01/28 06:53:40;;;;;;;58.70;26.80;;;;;;;-1.28;80.05;101421.45;107404;1253;110557;-59
2023/01/28 06:56:09;;;;;;;62.60;25.20;;;;;;;-1.25;80.07;101418.02;107381;1254;109037;-60
2023/01/28 06:58:38;;;;;;;63.50;28.80;;;;;;;-1.19;80.10;101424.03;107543;1254;99190;-60
2023/01/28 07:01:07;;;;;;;59.20;25.80;;;;;;;-1.16;79.83;101423.77;107564;1253;99201;-60
2023/01/28 07:03:36;;;;;;;60.20;27.40;;;;;;;-1.11;80.09;101422.56;107535;1253;113204;-59
2023/01/28 07:06:05;;;;;;;58.40;25.80;;;;;;;-1.03;80.27;101421.45;107466;1253;109808;-61
2023/01/28 07:08:34;;;;;;;54.00;23.50;;;;;;;-0.96;80.09;101411.20;107381;1256;108427;-59
2023/01/28 07:11:03;;;;;;;56.40;25.50;;;;;;;-0.91;80.08;101413.52;107415;1254;100650;-59
2023/01/28 07:13:31;;;;;;;57.60;24.10;;;;;;;-0.88;80.02;101414.31;107440;1253;99076;-61
2023/01/28 07:16:00;;;;;;;53.50;23.80;;;;;;;-0.86;79.97;101413.36;107440;1254;112686;-60
2023/01/28 07:18:29;;;;;;;46.70;23.10;;;;;;;-0.83;79.85;101416.80;107412;1253;110583;-60
2023/01/28 07:20:57;;;;;;;55.70;27.40;;;;;;;-0.77;79.94;101417.31;107409;1256;108798;-60
2023/01/28 07:23:26;;;;;;;51.80;23.90;;;;;;;-0.74;79.60;101409.14;107492;1253;99177;-61
2023/01/28 07:26:03;;;;;;;54.00;23.60;;;;;;;-0.72;79.63;101411.52;107471;1253;99812;-60
2023/01/28 07:28:31;;;;;;;47.80;21.70;;;;;;;-0.68;79.45;101409.44;107482;1253;113262;-60
2023/01/28 07:31:00;;;;;;;47.30;22.70;;;;;;;-0.66;78.92;101410.98;107518;1254;110120;-61
2023/01/28 07:33:28;;;;;;;59.50;26.60;;;;;;;-0.68;79.09;101408.23;107543;1253;108318;-63
2023/01/28 07:35:57;;;;;;;67.10;30.40;;;;;;;-0.70;79.02;101412.86;107441;1253;99256;-60
2023/01/28 07:38:25;;;;;;;58.20;26.00;;;;;;;-0.72;78.96;101413.45;107582;1254;99217;-60
2023/01/28 07:40:53;;;;;;;52.80;23.90;;;;;;;-0.74;78.92;101407.00;107529;1254;113617;-60
2023/01/28 07:43:22;;;;;;;57.80;25.40;;;;;;;-0.74;78.66;101412.10;107533;1253;109309;-60
2023/01/28 07:45:51;;;;;;;64.70;25.90;;;;;;;-0.76;78.73;101406.02;107353;1253;107901;-61
2023/01/28 07:48:20;;;;;;;55.30;24.70;;;;;;;-0.80;78.62;101412.48;107405;1253;99124;-60
2023/01/28 07:50:50;;;;;;;48.70;22.60;;;;;;;-0.81;78.64;101414.95;107513;1254;99758;-60
2023/01/28 07:53:19;;;;;;;54.70;23.70;;;;;;;-0.81;78.74;101410.91;107383;1253;113511;-60
2023/01/28 07:55:47;;;;;;;49.80;23.70;;;;;;;-0.80;78.99;101406.81;107442;1253;108701;-59
2023/01/28 07:58:16;;;;;;;60.80;24.50;;;;;;;-0.75;78.99;101405.10;107390;1253;109768;-60
2023/01/28 08:00:44;;;;;;;49.60;22.80;;;;;;;-0.69;79.11;101407.73;107391;1256;99302;-61
2023/01/28 08:03:15;;;;;;;53.20;22.60;;;;;;;-0.67;78.91;101409.05;107505;1253;99287;-59
2023/01/28 08:05:46;;;;;;;51.20;23.10;;;;;;;-0.63;78.99;101405.80;107509;1256;113855;-60
2023/01/28 08:08:15;;;;;;;46.50;21.40;;;;;;;-0.60;78.82;101402.53;107559;1253;109325;-60
2023/01/28 08:10:44;;;;;;;52.40;23.20;;;;;;;-0.58;78.57;101402.63;107473;1253;108611;-60
2023/01/28 08:13:14;;;;;;;37.40;19.60;;;;;;;-0.57;78.23;101402.08;107396;1252;99629;-60
2023/01/28 08:15:43;;;;;;;47.70;21.10;;;;;;;-0.57;78.20;101402.80;107463;1254;99187;-60
2023/01/28 08:18:13;;;;;;;57.80;21.90;;;;;;;-0.58;78.04;101397.16;107491;1253;112458;-59
2023/01/28 08:20:45;;;;;;;54.10;22.50;;;;;;;-0.59;78.11;101397.02;107528;1254;109692;-60
2023/01/28 08:23:15;;;;;;;43.10;22.00;;;;;;;-0.58;78.15;101393.81;107416;1253;107932;-60
2023/01/28 08:25:45;;;;;;;49.10;23.60;;;;;;;-0.58;77.91;101400.02;107456;1253;99201;-61
2023/01/28 08:28:15;;;;;;;51.40;23.60;;;;;;;-0.57;78.30;101401.55;107392;1253;99765;-61
2023/01/28 08:30:44;;;;;;;46.90;22.00;;;;;;;-0.55;78.22;101405.86;107435;1253;112640;-61
2023/01/28 08:33:14;;;;;;;51.70;23.60;;;;;;;-0.53;78.08;101405.29;107637;1253;110153;-60
2023/01/28 08:35:43;;;;;;;50.60;21.20;;;;;;;-0.54;78.05;101406.20;107566;1253;108632;-59
2023/01/28 08:38:16;;;;;;;49.00;23.30;;;;;;;-0.53;78.25;101399.83;107578;1254;99595;-60
2023/01/28 08:40:49;;;;;;;48.20;22.00;;;;;;;-0.50;78.08;101402.92;107627;1254;99289;-60
2023/01/28 08:43:17;;;;;;;49.70;21.90;;;;;;;-0.47;78.21;101402.29;107498;1253;113086;-60
2023/01/28 08:45:46;;;;;;;47.60;23.60;;;;;;;-0.45;78.13;101397.83;107601;1254;109767;-60
2023/01/28 08:48:16;;;;;;;50.10;21.50;;;;;;;-0.44;77.99;101398.66;107516;1252;108472;-60
2023/01/28 08:50:45;;;;;;;45.60;23.90;;;;;;;-0.48;77.54;101396.84;107635;1254;99817;-61
2023/01/28 08:53:16;;;;;;;49.20;22.00;;;;;;;-0.51;77.73;101398.18;107552;1253;99179;-60
2023/01/28 08:55:45;;;;;;;54.20;23.20;;;;;;;-0.54;77.83;101395.10;107587;1253;112701;-61
2023/01/28 08:58:16;;;;;;;53.20;23.00;;;;;;;-0.55;77.70;101396.73;107569;1254;109838;-59
2023/01/28 09:00:45;;;;;;;48.70;22.00;;;;;;;-0.56;77.70;101399.39;107544;1252;107704;-59
2023/01/28 09:03:14;;;;;;;47.30;22.80;;;;;;;-0.56;77.75;101397.63;107521;1253;99195;-61
2023/01/28 09:05:43;;;;;;;49.20;23.10;;;;;;;-0.55;77.74;101394.77;107590;1253;99084;-61
2023/01/28 09:08:13;;;;;;;47.10;23.20;;;;;;;-0.55;77.83;101392.14;107442;1253;113580;-59
2023/01/28 09:10:42;;;;;;;55.40;23.20;;;;;;;-0.52;77.82;101386.95;107557;1253;109793;-60
2023/01/28 09:13:14;;;;;;;51.70;23.50;;;;;;;-0.53;77.58;101390.84;107536;1253;109352;-59
2023/01/28 09:15:43;;;;;;;46.80;23.50;;;;;;;-0.57;77.87;101384.08;107563;1254;99191;-60
2023/01/28 09:18:12;;;;;;;51.00;23.10;;;;;;;-0.54;78.03;101387.02;107565;1256;99181;-61
2023/01/28 09:20:40;;;;;;;53.90;24.70;;;;;;;-0.52;77.85;101375.13;107581;1252;113771;-60
2023/01/28 09:23:09;;;;;;;46.80;21.90;;;;;;;-0.53;77.87;101374.27;107536;1254;111161;-61
2023/01/28 09:25:37;;;;;;;52.50;22.50;;;;;;;-0.54;78.03;101368.84;107594;1252;108510;-59
2023/01/28 09:28:06;;;;;;;49.00;23.00;;;;;;;-0.51;78.17;101370.17;107556;1256;99279;-60
2023/01/28 09:30:34;;;;;;;48.30;22.40;;;;;;;-0.47;78.08;101364.91;107637;1252;99694;-59
2023/01/28 09:33:06;;;;;;;50.40;21.80;;;;;;;-0.44;78.13;101366.41;107541;1253;113716;-59
2023/01/28 09:35:35;;;;;;;55.20;23.70;;;;;;;-0.40;78.18;101365.58;107540;1253;108740;-59
2023/01/28 09:38:04;;;;;;;47.70;22.00;;;;;;;-0.38;77.96;101363.90;107479;1253;108782;-60
2023/01/28 09:40:42;;;;;;;52.00;22.80;;;;;;;-0.36;77.94;101364.03;107452;1253;99311;-60
2023/01/28 09:43:40;;;;;;;49.80;21.30;;;;;;;-0.33;78.15;101361.80;107423;1253;99794;-59
2023/01/28 09:46:15;;;;;;;54.00;23.50;;;;;;;-0.25;78.22;101358.40;107391;1254;112718;-60
2023/01/28 09:48:49;;;;;;;55.40;24.50;;;;;;;-0.20;77.76;101355.55;107462;1257;109120;-61
2023/01/28 09:51:43;;;;;;;51.10;24.20;;;;;;;-0.21;77.63;101354.89;107471;1253;108514;-60
2023/01/28 09:54:18;;;;;;;49.90;25.30;;;;;;;-0.16;77.46;101357.88;107521;1254;99189;-62
2023/01/28 09:56:50;;;;;;;43.70;20.60;;;;;;;-0.16;77.12;101358.61;107534;1254;99727;-59
2023/01/28 09:59:21;;;;;;;47.60;22.50;;;;;;;-0.19;76.93;101355.00;107458;1252;113467;-61
2023/01/28 10:02:13;;;;;;;52.60;21.80;;;;;;;-0.20;76.89;101348.86;107577;1253;109252;-60
2023/01/28 10:04:45;;;;;;;44.00;18.90;;;;;;;-0.21;76.62;101351.71;107521;1253;108659;-60
2023/01/28 10:07:55;;;;;;;49.20;21.60;;;;;;;-0.23;76.52;101351.07;107437;1252;99048;-60
2023/01/28 10:10:41;;;;;;;48.10;18.90;;;;;;;-0.20;76.89;101354.33;107621;1253;99070;-59
2023/01/28 10:13:15;;;;;;;49.20;24.10;;;;;;;-0.20;75.81;101352.54;107546;1254;112329;-61
2023/01/28 10:15:47;;;;;;;52.30;22.40;;;;;;;-0.22;75.89;101358.10;107561;1253;109569;-61
2023/01/28 10:18:25;;;;;;;51.30;22.60;;;;;;;-0.23;75.92;101362.02;107588;1253;108224;-58
2023/01/28 10:21:01;;;;;;;48.60;23.70;;;;;;;-0.27;75.91;101362.14;107446;1253;99189;-61
2023/01/28 10:23:36;;;;;;;46.70;20.80;;;;;;;-0.28;75.77;101359.21;107600;1254;99153;-60
2023/01/28 10:26:20;;;;;;;46.80;21.70;;;;;;;-0.31;75.10;101357.36;107582;1252;112055;-60
2023/01/28 10:28:53;;;;;;;55.00;24.20;;;;;;;-0.36;75.58;101356.09;107593;1256;109255;-60
2023/01/28 10:31:28;;;;;;;49.60;22.30;;;;;;;-0.40;75.62;101355.35;107578;1253;107622;-59
2023/01/28 10:33:57;;;;;;;51.20;23.40;;;;;;;-0.41;75.58;101356.11;107564;1254;99182;-60
2023/01/28 10:36:26;;;;;;;50.00;22.60;;;;;;;-0.40;75.37;101347.96;107629;1253;99211;-59
2023/01/28 10:38:55;;;;;;;51.70;26.40;;;;;;;-0.42;75.78;101343.44;107493;1253;112490;-60
2023/01/28 10:41:25;;;;;;;46.80;22.00;;;;;;;-0.42;76.15;101345.39;107623;1254;108415;-64
2023/01/28 10:43:56;;;;;;;45.10;20.70;;;;;;;-0.39;76.29;101343.52;106698;1256;1007042;-60
2023/01/28 10:46:35;;;;;;;49.80;21.30;;;;;;;-0.37;75.77;101345.05;107471;1253;99196;-60
2023/01/28 10:49:26;;;;;;;45.30;18.70;;;;;;;-0.38;76.02;101344.17;107529;1254;99184;-60
2023/01/28 10:51:55;;;;;;;46.50;20.00;;;;;;;-0.36;75.57;101338.30;107397;1256;113613;-63
2023/01/28 10:54:26;;;;;;;48.70;22.00;;;;;;;-0.38;75.35;101335.55;107510;1254;109737;-61
2023/01/28 10:57:00;;;;;;;46.30;19.80;;;;;;;-0.39;75.30;101327.28;107457;1253;107274;-60
2023/01/28 10:59:33;;;;;;;41.00;17.60;;;;;;;-0.39;75.13;101324.48;107419;1253;99063;-61
2023/01/28 11:02:05;;;;;;;37.10;18.50;;;;;;;-0.40;74.61;101324.69;107458;1257;99176;-62
2023/01/28 11:04:35;;;;;;;41.80;19.10;;;;;;;-0.42;75.02;101323.89;107464;1253;113730;-60
2023/01/28 11:07:15;;;;;;;44.10;19.80;;;;;;;-0.38;75.13;101319.00;107519;1253;108872;-64
2023/01/28 11:09:48;;;;;;;42.10;19.00;;;;;;;-0.36;75.25;101321.54;107379;1254;107761;-64
2023/01/28 11:12:26;;;;;;;44.80;19.60;;;;;;;-0.30;75.06;101323.48;107410;1257;99205;-60
2023/01/28 11:15:00;;;;;;;39.10;20.50;;;;;;;-0.28;74.47;101321.13;107455;1253;99717;-61
2023/01/28 11:17:31;;;;;;;;;;;;;;;-0.28;73.77;101320.05;107580;1253;113638;-60
2023/01/28 11:20:18;;;;;;;41.80;19.20;;;;;;;-0.29;73.64;101326.62;107472;1253;109101;-59
2023/01/28 11:22:48;;;;;;;44.80;20.20;;;;;;;-0.31;73.05;101321.23;107448;1253;107604;-63
2023/01/28 11:25:30;;;;;;;47.20;21.10;;;;;;;-0.35;73.07;101322.57;107450;1253;99199;-60
2023/01/28 11:28:01;;;;;;;38.60;20.40;;;;;;;-0.37;73.36;101318.08;107503;1253;99730;-60
2023/01/28 11:30:40;;;;;;;48.90;19.40;;;;;;;-0.41;72.96;101309.04;107439;1253;113672;-62
2023/01/28 11:33:21;;;;;;;40.80;18.00;;;;;;;-0.48;72.43;101315.07;107483;1253;110147;-60
2023/01/28 11:36:04;;;;;;;46.50;18.40;;;;;;;-0.51;72.72;101316.77;107401;1253;108212;-62
2023/01/28 11:38:33;;;;;;;36.70;19.30;;;;;;;-0.52;73.33;101316.11;107482;1254;99308;-60
2023/01/28 11:41:01;;;;;;;45.90;21.70;;;;;;;-0.50;73.34;101313.40;107487;1254;99374;-60
2023/01/28 11:43:31;;;;;;;45.50;19.60;;;;;;;-0.48;73.39;101313.48;107500;1253;112663;-59
2023/01/28 11:46:17;;;;;;;42.30;20.00;;;;;;;-0.43;73.32;101310.70;107465;1254;109783;-60
2023/01/28 11:49:11;;;;;;;41.30;21.30;;;;;;;-0.45;72.88;101312.15;107360;1253;107809;-59
2023/01/28 11:51:57;;;;;;;42.70;21.10;;;;;;;-0.50;73.30;101304.92;107527;1253;99119;-61
2023/01/28 11:55:03;;;;;;;53.70;22.30;;;;;;;-0.48;73.74;101301.85;107470;1253;99746;-62
2023/01/28 11:57:36;;;;;;;46.70;21.30;;;;;;;-0.47;73.53;101297.61;107492;1253;112648;-61
2023/01/28 12:00:30;;;;;;;46.00;21.30;;;;;;;-0.47;73.69;101296.19;107515;1254;110255;-59